Time;durP1;ratioP1;P1;durP2;ratioP2;P2;SDS_P1;SDS_P2;PMS_P1;PMS_P2;Temp;Humidity;BMP_temperature;BMP_pressure;BME280_temperature;BME280_humidity;BME280_pressure;Samples;Min_cycle;Max_cycle;Signal;HPM_P1;HPM_P2
2021/05/13 00:02:06;;;;;;;0.10;0.10;;;10.90;74.80;;;;;;4992751;28;20447;-64
2021/05/13 00:04:33;;;;;;;0.10;0.10;;;10.90;74.80;;;;;;4992184;28;20119;-65
2021/05/13 00:06:59;;;;;;;0.20;0.20;;;11.00;74.90;;;;;;4992410;28;20162;-65
2021/05/13 00:09:25;;;;;;;0.00;0.00;;;11.00;74.90;;;;;;4992465;28;20085;-65
2021/05/13 00:11:53;;;;;;;0.20;0.20;;;11.00;74.90;;;;;;4992323;28;20065;-65
2021/05/13 00:14:19;;;;;;;0.10;0.10;;;11.00;74.70;;;;;;4991932;28;20406;-65
2021/05/13 00:16:46;;;;;;;0.10;0.10;;;11.00;74.70;;;;;;4995014;28;20046;-65
2021/05/13 00:19:14;;;;;;;0.10;0.10;;;11.10;74.70;;;;;;4996315;28;20137;-65
2021/05/13 00:21:44;;;;;;;0.10;0.10;;;11.10;74.70;;;;;;4995545;28;20061;-65
2021/05/13 00:24:13;;;;;;;0.10;0.10;;;11.10;74.70;;;;;;4996313;28;20085;-65
2021/05/13 00:26:42;;;;;;;0.10;0.10;;;11.10;74.70;;;;;;4984799;28;20089;-65
2021/05/13 00:29:11;;;;;;;0.10;0.10;;;11.10;74.80;;;;;;4995375;28;20486;-65
2021/05/13 00:31:38;;;;;;;0.10;0.10;;;11.10;74.90;;;;;;4995779;28;20057;-65
2021/05/13 00:34:05;;;;;;;0.20;0.20;;;11.20;74.90;;;;;;4995772;28;20046;-65
2021/05/13 00:36:34;;;;;;;0.10;0.10;;;11.10;74.80;;;;;;4995670;28;20789;-65
2021/05/13 00:39:01;;;;;;;0.20;0.20;;;11.10;75.00;;;;;;4995736;28;20514;-65
2021/05/13 00:41:28;;;;;;;0.20;0.20;;;11.10;75.10;;;;;;4995518;28;20054;-65
2021/05/13 00:43:54;;;;;;;0.20;0.20;;;11.10;75.20;;;;;;4995085;28;20546;-65
2021/05/13 00:46:22;;;;;;;0.10;0.10;;;11.10;75.40;;;;;;4995618;28;20430;-65
2021/05/13 00:48:49;;;;;;;0.20;0.20;;;11.10;75.40;;;;;;4995867;28;20046;-64
2021/05/13 00:51:15;;;;;;;0.20;0.20;;;11.10;75.50;;;;;;4995407;28;20486;-65
2021/05/13 00:53:46;;;;;;;0.10;0.10;;;11.10;76.50;;;;;;4995380;28;20494;-65
2021/05/13 00:56:14;;;;;;;0.22;0.17;;;11.10;75.60;;;;;;4995408;28;20092;-64
2021/05/13 00:58:44;;;;;;;0.10;0.10;;;11.00;75.60;;;;;;4995477;28;20050;-64
2021/05/13 01:01:16;;;;;;;;;;;11.00;75.60;;;;;;4996139;28;20050;-65
2021/05/13 01:03:43;;;;;;;0.10;0.10;;;11.00;75.70;;;;;;4995171;28;19926;-65
2021/05/13 01:06:12;;;;;;;0.10;0.10;;;11.00;75.60;;;;;;4995008;28;20109;-65
2021/05/13 01:08:40;;;;;;;0.20;0.20;;;11.00;75.70;;;;;;4995223;28;20054;-65
2021/05/13 01:11:13;;;;;;;0.20;0.20;;;11.00;75.70;;;;;;4995253;28;20177;-65
2021/05/13 01:14:04;;;;;;;0.20;0.20;;;11.10;75.80;;;;;;4995210;28;20047;-65
2021/05/13 01:16:51;;;;;;;0.10;0.10;;;11.10;76.00;;;;;;4995294;28;20178;-65
2021/05/13 01:19:17;;;;;;;0.10;0.10;;;11.10;76.00;;;;;;4994967;28;20534;-65
2021/05/13 01:21:45;;;;;;;0.20;0.20;;;11.10;76.00;;;;;;4995119;28;20071;-65
2021/05/13 01:24:12;;;;;;;0.30;0.22;;;11.10;76.00;;;;;;4995093;28;20133;-65
2021/05/13 01:26:43;;;;;;;0.30;0.30;;;11.10;76.00;;;;;;4994658;28;20445;-65
2021/05/13 01:29:09;;;;;;;0.20;0.20;;;11.10;76.00;;;;;;4995057;28;20534;-65
2021/05/13 01:31:36;;;;;;;0.10;0.10;;;11.10;75.80;;;;;;4994768;28;20130;-65
2021/05/13 01:34:05;;;;;;;0.10;0.10;;;11.10;75.70;;;;;;4994964;28;20050;-65
2021/05/13 01:36:33;;;;;;;0.20;0.20;;;11.20;75.60;;;;;;4994673;28;20054;-65
2021/05/13 01:39:00;;;;;;;0.20;0.20;;;11.10;75.50;;;;;;4994939;28;20062;-64
2021/05/13 01:41:27;;;;;;;0.10;0.10;;;11.20;75.50;;;;;;4994711;28;20042;-64
2021/05/13 01:43:53;;;;;;;0.22;0.22;;;11.20;75.50;;;;;;4994458;28;20050;-64
2021/05/13 01:46:19;;;;;;;0.13;0.13;;;11.20;75.50;;;;;;4994139;28;20441;-65
2021/05/13 01:48:46;;;;;;;0.10;0.10;;;11.20;75.50;;;;;;4990181;28;20136;-64
2021/05/13 01:51:12;;;;;;;0.20;0.20;;;11.20;75.30;;;;;;4988411;28;20058;-65
2021/05/13 01:53:42;;;;;;;0.20;0.20;;;11.20;75.30;;;;;;4994387;28;20518;-65
2021/05/13 01:56:10;;;;;;;0.10;0.10;;;11.20;75.30;;;;;;4994516;28;20479;-65
2021/05/13 01:58:38;;;;;;;0.20;0.20;;;11.20;75.30;;;;;;4994500;28;20505;-66
2021/05/13 02:01:05;;;;;;;0.20;0.20;;;11.20;75.30;;;;;;4994359;28;20125;-65
2021/05/13 02:03:34;;;;;;;0.20;0.20;;;11.20;75.50;;;;;;4994404;28;20554;-65
2021/05/13 02:06:00;;;;;;;0.30;0.30;;;11.30;75.50;;;;;;4994134;28;20633;-65
2021/05/13 02:08:26;;;;;;;0.30;0.30;;;11.30;75.60;;;;;;4994301;28;20200;-64
2021/05/13 02:10:53;;;;;;;0.15;0.15;;;11.20;75.60;;;;;;4993985;28;20105;-65
2021/05/13 02:13:19;;;;;;;0.20;0.20;;;11.20;75.70;;;;;;4993910;28;20112;-65
2021/05/13 02:15:45;;;;;;;0.10;0.10;;;11.10;75.80;;;;;;4994104;28;20078;-65
2021/05/13 02:18:12;;;;;;;0.10;0.10;;;11.10;76.10;;;;;;4994245;28;20141;-65
2021/05/13 02:20:38;;;;;;;0.20;0.20;;;11.10;76.10;;;;;;4994047;28;20053;-65
2021/05/13 02:23:04;;;;;;;0.20;0.20;;;11.10;76.20;;;;;;4993743;28;20050;-65
2021/05/13 02:25:35;;;;;;;0.28;0.28;;;11.10;76.20;;;;;;4993443;28;20094;-64
2021/05/13 02:28:02;;;;;;;0.10;0.10;;;11.10;76.40;;;;;;4993887;28;20148;-64
2021/05/13 02:30:29;;;;;;;0.20;0.20;;;11.10;76.40;;;;;;4993676;28;20050;-65
2021/05/13 02:32:55;;;;;;;0.30;0.30;;;11.10;76.50;;;;;;4993353;28;20542;-65
2021/05/13 02:35:21;;;;;;;0.10;0.10;;;11.00;76.60;;;;;;4992853;28;20053;-64
2021/05/13 02:37:48;;;;;;;0.20;0.20;;;11.00;76.70;;;;;;4992008;28;20508;-65
2021/05/13 02:40:15;;;;;;;0.20;0.20;;;11.00;76.90;;;;;;4992065;28;20042;-64
2021/05/13 02:42:43;;;;;;;0.20;0.20;;;11.00;77.00;;;;;;4993180;28;20185;-65
2021/05/13 02:45:11;;;;;;;0.22;0.22;;;11.00;77.00;;;;;;4992775;28;20050;-64
2021/05/13 02:47:37;;;;;;;0.20;0.20;;;11.00;77.00;;;;;;4992742;28;20133;-64
2021/05/13 02:50:05;;;;;;;0.20;0.20;;;11.00;76.90;;;;;;4992003;28;20530;-65
2021/05/13 02:52:31;;;;;;;0.30;0.30;;;10.90;77.20;;;;;;4992312;28;20050;-65
2021/05/13 02:54:58;;;;;;;0.20;0.20;;;10.90;77.40;;;;;;4992308;28;20532;-64
2021/05/13 02:57:24;;;;;;;0.45;0.30;;;10.90;77.50;;;;;;4992518;28;20100;-64
2021/05/13 03:00:01;;;;;;;0.20;0.20;;;10.90;77.60;;;;;;4992187;28;20050;-64
2021/05/13 03:02:28;;;;;;;0.20;0.20;;;10.90;77.60;;;;;;4992633;28;20054;-64
2021/05/13 03:04:54;;;;;;;0.20;0.20;;;10.90;77.60;;;;;;4992009;28;20054;-65
2021/05/13 03:07:20;;;;;;;0.13;0.13;;;11.00;77.60;;;;;;4992398;28;20101;-65
2021/05/13 03:09:56;;;;;;;0.17;0.15;;;11.00;77.80;;;;;;4992232;28;20058;-65
2021/05/13 03:12:23;;;;;;;0.30;0.20;;;11.00;77.80;;;;;;4991900;28;20054;-65
2021/05/13 03:14:49;;;;;;;0.13;0.13;;;11.00;77.80;;;;;;4993214;28;20090;-68
2021/05/13 03:17:15;;;;;;;0.20;0.20;;;11.00;77.80;;;;;;4992853;28;20506;-65
2021/05/13 03:19:47;;;;;;;0.20;0.20;;;11.00;77.80;;;;;;4993061;28;20133;-64
2021/05/13 03:22:18;;;;;;;0.10;0.10;;;11.10;78.00;;;;;;4992699;28;20189;-64
2021/05/13 03:27:14;;;;;;;0.20;0.20;;;11.10;78.10;;;;;;4992533;28;20541;-65
2021/05/13 03:29:41;;;;;;;0.25;0.25;;;11.10;78.10;;;;;;4992944;28;20057;-65
2021/05/13 03:32:07;;;;;;;0.20;0.20;;;11.00;78.10;;;;;;4992587;28;20563;-65
2021/05/13 03:34:33;;;;;;;0.50;0.40;;;11.10;78.20;;;;;;4992752;28;20046;-65
2021/05/13 03:37:00;;;;;;;0.30;0.20;;;11.00;78.30;;;;;;4992245;28;20129;-65
2021/05/13 03:39:26;;;;;;;0.20;0.20;;;11.00;78.40;;;;;;4992680;28;20096;-65
2021/05/13 03:41:52;;;;;;;0.20;0.20;;;11.10;78.50;;;;;;4991835;28;20133;-65
2021/05/13 03:44:19;;;;;;;0.20;0.20;;;11.10;78.50;;;;;;4991750;28;20054;-65
2021/05/13 03:46:45;;;;;;;0.20;0.20;;;11.00;78.50;;;;;;4991754;28;20511;-65
2021/05/13 03:49:11;;;;;;;0.17;0.17;;;11.10;78.60;;;;;;4991585;28;20077;-64
2021/05/13 03:51:37;;;;;;;0.20;0.20;;;11.10;78.60;;;;;;4990184;28;20050;-64
2021/05/13 03:54:04;;;;;;;0.10;0.10;;;11.10;78.60;;;;;;4991695;28;20061;-65
2021/05/13 03:56:30;;;;;;;0.10;0.10;;;11.10;78.70;;;;;;4991692;28;20050;-65
2021/05/13 03:59:01;;;;;;;0.25;0.25;;;11.10;78.80;;;;;;4991082;28;20517;-64
2021/05/13 04:03:56;;;;;;;0.20;0.15;;;11.10;79.20;;;;;;4991784;28;20485;-65
2021/05/13 04:06:23;;;;;;;0.30;0.30;;;11.00;79.40;;;;;;4986894;28;20058;-65
2021/05/13 04:08:50;;;;;;;0.30;0.15;;;11.00;79.50;;;;;;4991109;28;20062;-65
2021/05/13 04:11:17;;;;;;;0.10;0.10;;;11.00;79.60;;;;;;4991410;28;20143;-65
2021/05/13 04:13:44;;;;;;;0.13;0.13;;;11.00;79.60;;;;;;4991245;28;20038;-64
2021/05/13 04:16:11;;;;;;;0.13;0.13;;;11.00;79.70;;;;;;4991650;28;20047;-64
2021/05/13 04:18:37;;;;;;;0.20;0.20;;;11.00;79.70;;;;;;4991522;28;20085;-65
2021/05/13 04:21:04;;;;;;;0.28;0.20;;;11.00;79.70;;;;;;4991219;28;20120;-65
2021/05/13 04:23:30;;;;;;;0.10;0.10;;;11.10;79.80;;;;;;4991412;28;20051;-65
2021/05/13 04:25:56;;;;;;;0.20;0.20;;;11.00;79.80;;;;;;4991324;28;20132;-65
2021/05/13 04:28:23;;;;;;;0.20;0.20;;;11.00;80.00;;;;;;4991361;28;20487;-65
2021/05/13 04:30:49;;;;;;;0.05;0.05;;;11.00;80.10;;;;;;4991214;28;20421;-65
2021/05/13 04:33:15;;;;;;;0.20;0.20;;;11.00;80.20;;;;;;4986906;28;20050;-65
2021/05/13 04:35:42;;;;;;;0.30;0.30;;;11.00;80.30;;;;;;4987830;28;20054;-65
2021/05/13 04:38:10;;;;;;;0.15;0.15;;;11.00;80.30;;;;;;4991217;28;20038;-64
2021/05/13 04:40:37;;;;;;;0.20;0.20;;;11.10;80.40;;;;;;4991438;28;20534;-65
2021/05/13 04:43:03;;;;;;;0.17;0.17;;;11.10;80.40;;;;;;4991006;28;20051;-65
2021/05/13 04:45:29;;;;;;;0.20;0.20;;;11.10;80.60;;;;;;4991323;28;20498;-65
2021/05/13 04:50:25;;;;;;;0.30;0.30;;;11.10;80.80;;;;;;4990759;28;20046;-65
2021/05/13 04:52:51;;;;;;;0.10;0.10;;;11.10;80.80;;;;;;4991061;28;20174;-65
2021/05/13 04:55:18;;;;;;;0.10;0.10;;;11.10;80.80;;;;;;4977597;28;20050;-65
2021/05/13 04:57:44;;;;;;;0.20;0.20;;;11.10;80.80;;;;;;4991194;28;20560;-65
2021/05/13 05:00:12;;;;;;;0.10;0.10;;;11.10;80.80;;;;;;4990896;28;20149;-65
2021/05/13 05:02:38;;;;;;;0.20;0.20;;;11.10;80.80;;;;;;4993309;28;20123;-65
2021/05/13 05:05:06;;;;;;;0.20;0.20;;;11.10;80.90;;;;;;4993791;28;20062;-66
2021/05/13 05:07:32;;;;;;;0.25;0.25;;;11.10;80.90;;;;;;4994875;28;20157;-65
2021/05/13 05:09:58;;;;;;;0.20;0.20;;;11.10;81.00;;;;;;4994134;28;20073;-65
2021/05/13 05:12:24;;;;;;;0.28;0.28;;;11.10;81.10;;;;;;4994359;28;20188;-65
2021/05/13 05:14:51;;;;;;;0.13;0.13;;;11.10;81.20;;;;;;4994445;28;20129;-65
2021/05/13 05:17:17;;;;;;;0.10;0.10;;;11.10;81.20;;;;;;4994091;28;20046;-65
2021/05/13 05:19:44;;;;;;;0.20;0.20;;;11.10;81.20;;;;;;4994419;28;20129;-65
2021/05/13 05:22:10;;;;;;;0.13;0.13;;;11.10;81.40;;;;;;4994202;28;20100;-65
2021/05/13 05:24:36;;;;;;;0.10;0.10;;;11.10;81.40;;;;;;4994568;28;20140;-65
2021/05/13 05:27:03;;;;;;;0.30;0.30;;;11.20;81.50;;;;;;4995050;28;20060;-65
2021/05/13 05:29:29;;;;;;;0.10;0.10;;;11.20;81.50;;;;;;4994817;28;20575;-65
2021/05/13 05:31:56;;;;;;;0.20;0.20;;;11.20;81.50;;;;;;4994434;28;20050;-65
2021/05/13 05:34:22;;;;;;;0.13;0.13;;;11.20;81.50;;;;;;4994035;28;20116;-65
2021/05/13 05:36:48;;;;;;;0.28;0.28;;;11.20;81.40;;;;;;4994194;28;20058;-65
2021/05/13 05:39:15;;;;;;;0.10;0.10;;;11.20;81.40;;;;;;4994100;28;20046;-65
2021/05/13 05:41:42;;;;;;;0.20;0.20;;;11.20;81.50;;;;;;4994145;28;20122;-65
2021/05/13 05:44:08;;;;;;;0.10;0.10;;;11.20;81.60;;;;;;4994002;28;20121;-65
2021/05/13 05:46:35;;;;;;;0.20;0.20;;;11.20;81.50;;;;;;4990778;28;20065;-65
2021/05/13 05:49:01;;;;;;;0.20;0.20;;;11.20;81.50;;;;;;4989189;28;20053;-65
2021/05/13 05:51:28;;;;;;;0.10;0.10;;;11.30;81.50;;;;;;4993556;28;20073;-65
2021/05/13 05:53:54;;;;;;;0.20;0.20;;;11.30;81.40;;;;;;4993036;28;20133;-65
2021/05/13 05:56:20;;;;;;;0.17;0.17;;;11.30;81.50;;;;;;4990077;28;20126;-65
2021/05/13 05:58:46;;;;;;;0.10;0.10;;;11.30;81.30;;;;;;4992944;28;20467;-65
2021/05/13 06:01:13;;;;;;;0.10;0.10;;;11.30;81.40;;;;;;4992496;28;20050;-65
2021/05/13 06:03:39;;;;;;;0.10;0.10;;;11.40;81.40;;;;;;4992707;28;20050;-65
2021/05/13 06:06:05;;;;;;;0.10;0.10;;;11.40;81.50;;;;;;4992893;28;20136;-65
2021/05/13 06:08:32;;;;;;;0.15;0.15;;;11.40;81.40;;;;;;4991287;28;20498;-65
2021/05/13 06:10:58;;;;;;;0.10;0.10;;;11.50;81.50;;;;;;4991853;28;20061;-65
2021/05/13 06:13:24;;;;;;;0.20;0.20;;;11.50;81.40;;;;;;4989513;28;20047;-65
2021/05/13 06:15:50;;;;;;;1.25;0.20;;;11.40;81.40;;;;;;4990524;28;20050;-65
2021/05/13 06:18:17;;;;;;;0.20;0.20;;;11.50;81.40;;;;;;4990116;28;20124;-66
2021/05/13 06:20:43;;;;;;;0.20;0.20;;;11.50;81.30;;;;;;4990665;28;20046;-66
2021/05/13 06:23:10;;;;;;;0.20;0.20;;;11.50;81.50;;;;;;4986628;28;20294;-65
2021/05/13 06:25:36;;;;;;;0.10;0.10;;;11.60;81.50;;;;;;4986717;28;20062;-65
2021/05/13 06:28:03;;;;;;;0.10;0.10;;;11.60;81.50;;;;;;4989824;28;20050;-65
2021/05/13 06:30:30;;;;;;;0.10;0.10;;;11.60;81.30;;;;;;4984971;28;20109;-65
2021/05/13 06:32:56;;;;;;;0.10;0.10;;;11.60;81.20;;;;;;4989144;28;20054;-65
2021/05/13 06:35:22;;;;;;;0.20;0.20;;;11.70;81.20;;;;;;4989053;28;20050;-65
2021/05/13 06:37:49;;;;;;;0.10;0.10;;;11.70;81.20;;;;;;4992784;28;20189;-65
2021/05/13 06:40:16;;;;;;;0.10;0.10;;;11.70;81.10;;;;;;4992731;28;20503;-65
2021/05/13 06:42:42;;;;;;;0.20;0.20;;;11.70;81.10;;;;;;4986625;28;20570;-66
2021/05/13 06:45:10;;;;;;;0.20;0.20;;;11.70;81.20;;;;;;4979110;28;20047;-66
2021/05/13 06:47:39;;;;;;;0.17;0.17;;;11.80;81.20;;;;;;4973166;28;20133;-66
2021/05/13 06:50:07;;;;;;;0.17;0.17;;;11.80;81.20;;;;;;4974169;28;20042;-66
2021/05/13 06:52:33;;;;;;;0.30;0.30;;;11.80;81.30;;;;;;4975114;28;20058;-66
2021/05/13 06:54:59;;;;;;;0.40;0.40;;;11.80;81.30;;;;;;4975450;28;20046;-66
2021/05/13 06:57:26;;;;;;;0.20;0.20;;;11.90;81.30;;;;;;4975161;28;20150;-66
2021/05/13 06:59:52;;;;;;;0.20;0.20;;;11.90;81.30;;;;;;4975952;28;20074;-66
2021/05/13 07:02:18;;;;;;;0.20;0.20;;;11.90;81.30;;;;;;4991506;28;20116;-66
2021/05/13 07:04:45;;;;;;;0.20;0.20;;;12.00;81.20;;;;;;4990800;28;20137;-66
2021/05/13 07:07:12;;;;;;;0.22;0.22;;;12.00;81.20;;;;;;4991354;28;20125;-64
2021/05/13 07:09:38;;;;;;;0.10;0.10;;;12.00;81.10;;;;;;4989728;28;20054;-65
2021/05/13 07:12:05;;;;;;;0.10;0.10;;;12.10;81.10;;;;;;4973839;28;20058;-65
2021/05/13 07:14:31;;;;;;;0.10;0.10;;;12.10;81.20;;;;;;4973575;28;20054;-65
2021/05/13 07:16:58;;;;;;;0.10;0.10;;;12.20;81.00;;;;;;4977230;28;20619;-66
2021/05/13 07:19:24;;;;;;;0.17;0.17;;;12.20;81.10;;;;;;4980070;28;20493;-68
2021/05/13 07:21:51;;;;;;;0.10;0.10;;;12.30;80.70;;;;;;4985625;28;20454;-64
2021/05/13 07:24:17;;;;;;;0.25;0.25;;;12.40;80.60;;;;;;4987133;28;20174;-66
2021/05/13 07:26:43;;;;;;;0.22;0.17;;;12.50;80.30;;;;;;4977873;28;20057;-65
2021/05/13 07:29:10;;;;;;;0.20;0.20;;;12.50;80.10;;;;;;4978382;28;20050;-64
2021/05/13 07:31:36;;;;;;;0.10;0.10;;;12.60;79.70;;;;;;4975422;28;20599;-64
2021/05/13 07:34:03;;;;;;;0.20;0.20;;;12.70;79.60;;;;;;4981022;28;20177;-63
2021/05/13 07:36:29;;;;;;;0.10;0.10;;;12.80;79.30;;;;;;4983014;28;20046;-64
2021/05/13 07:38:56;;;;;;;0.10;0.10;;;12.80;79.00;;;;;;4979728;28;20049;-66
2021/05/13 07:41:23;;;;;;;0.10;0.10;;;12.90;78.50;;;;;;4982774;28;20092;-66
2021/05/13 07:43:51;;;;;;;0.10;0.10;;;12.90;78.10;;;;;;4988854;28;20062;-67
2021/05/13 07:46:20;;;;;;;0.10;0.10;;;12.90;78.00;;;;;;4986398;28;20054;-72
2021/05/13 07:48:49;;;;;;;0.13;0.10;;;13.00;78.00;;;;;;4980691;28;20130;-71
2021/05/13 07:51:16;;;;;;;0.20;0.20;;;13.00;77.80;;;;;;4982789;28;20098;-72
2021/05/13 07:53:42;;;;;;;0.10;0.10;;;13.00;77.60;;;;;;4988213;28;20384;-67
2021/05/13 07:56:09;;;;;;;0.10;0.10;;;13.10;77.10;;;;;;4989961;28;20186;-65
2021/05/13 07:58:35;;;;;;;0.10;0.10;;;13.10;76.50;;;;;;4974772;28;20050;-67
2021/05/13 08:01:01;;;;;;;0.10;0.10;;;13.10;76.20;;;;;;4974071;28;20062;-66
2021/05/13 08:03:28;;;;;;;0.20;0.20;;;13.10;76.30;;;;;;4979525;28;20054;-64
2021/05/13 08:05:54;;;;;;;0.15;0.15;;;13.10;76.30;;;;;;4975306;28;20089;-67
2021/05/13 08:08:20;;;;;;;0.08;0.08;;;13.10;76.40;;;;;;4975770;28;20054;-66
2021/05/13 08:10:46;;;;;;;0.20;0.20;;;13.10;76.50;;;;;;4984658;28;20172;-65
2021/05/13 08:13:15;;;;;;;0.10;0.10;;;13.10;76.60;;;;;;4989581;28;20050;-65
2021/05/13 08:15:42;;;;;;;0.10;0.10;;;13.10;76.70;;;;;;4990481;28;20050;-65
2021/05/13 08:18:09;;;;;;;0.10;0.10;;;13.10;76.70;;;;;;4989110;28;20050;-65
2021/05/13 08:20:35;;;;;;;0.10;0.10;;;13.10;76.80;;;;;;4990094;28;20182;-64
2021/05/13 08:23:01;;;;;;;0.20;0.20;;;13.20;76.80;;;;;;4990558;28;20061;-64
2021/05/13 08:25:27;;;;;;;0.20;0.20;;;13.20;75.90;;;;;;4988498;28;20105;-66
2021/05/13 08:27:54;;;;;;;0.10;0.10;;;13.20;75.40;;;;;;4980437;28;20097;-66
2021/05/13 08:30:20;;;;;;;0.20;0.20;;;13.20;75.30;;;;;;4988601;28;20467;-65
2021/05/13 08:32:47;;;;;;;0.20;0.20;;;13.20;75.40;;;;;;4988267;28;20054;-68
2021/05/13 08:35:13;;;;;;;0.30;0.30;;;13.20;75.40;;;;;;4986023;28;20069;-67
2021/05/13 08:37:40;;;;;;;0.10;0.10;;;13.30;75.10;;;;;;4993828;28;20129;-69
2021/05/13 08:40:07;;;;;;;0.10;0.10;;;13.30;74.90;;;;;;4996181;28;20161;-69
2021/05/13 08:42:34;;;;;;;0.17;0.17;;;13.30;74.90;;;;;;4995490;28;20078;-70
2021/05/13 08:45:00;;;;;;;0.20;0.20;;;13.30;74.40;;;;;;4995893;28;20053;-69
2021/05/13 08:47:27;;;;;;;0.10;0.10;;;13.40;74.50;;;;;;4995764;28;20133;-68
2021/05/13 08:49:53;;;;;;;0.30;0.30;;;13.40;74.70;;;;;;4995465;28;20097;-67
2021/05/13 08:52:21;;;;;;;0.05;0.05;;;13.40;74.80;;;;;;4995356;28;20058;-69
2021/05/13 08:54:52;;;;;;;0.10;0.00;;;13.50;74.70;;;;;;4995107;28;20055;-69
2021/05/13 08:57:19;;;;;;;0.10;0.10;;;13.60;74.40;;;;;;4995822;28;20115;-70
2021/05/13 08:59:46;;;;;;;0.15;0.15;;;13.60;74.00;;;;;;4994871;28;20057;-70
2021/05/13 09:02:14;;;;;;;0.08;0.08;;;13.60;73.70;;;;;;4995538;28;20125;-68
2021/05/13 09:04:46;;;;;;;0.10;0.10;;;13.70;73.70;;;;;;4994402;28;20061;-67
2021/05/13 09:07:27;;;;;;;0.10;0.10;;;13.70;72.20;;;;;;4979279;28;20162;-69
2021/05/13 09:10:12;;;;;;;0.13;0.13;;;13.80;71.60;;;;;;4979491;28;20507;-67
2021/05/13 09:12:47;;;;;;;0.10;0.10;;;14.00;71.50;;;;;;4979872;28;20054;-69
2021/05/13 09:15:18;;;;;;;0.20;0.20;;;14.00;71.10;;;;;;4982899;28;20089;-64
2021/05/13 09:17:50;;;;;;;0.05;0.05;;;14.10;71.00;;;;;;4977976;28;20133;-66
2021/05/13 09:20:36;;;;;;;0.10;0.10;;;14.10;71.10;;;;;;4975303;28;20202;-65
2021/05/13 09:23:15;;;;;;;0.05;0.05;;;14.20;70.70;;;;;;4973685;28;20121;-65
2021/05/13 09:26:03;;;;;;;0.10;0.10;;;14.20;70.20;;;;;;4976406;28;20050;-66
2021/05/13 09:28:29;;;;;;;0.15;0.10;;;14.10;70.00;;;;;;4974413;28;21104;-66
2021/05/13 09:30:55;;;;;;;0.10;0.10;;;14.10;70.10;;;;;;4977657;28;20124;-66
2021/05/13 09:33:30;;;;;;;0.25;0.20;;;14.10;70.20;;;;;;4977966;28;20042;-66
2021/05/13 09:35:57;;;;;;;0.05;0.05;;;14.20;70.60;;;;;;4992243;28;20109;-66
2021/05/13 09:38:33;;;;;;;0.10;0.10;;;14.80;71.70;;;;;;4993833;28;20117;-66
2021/05/13 09:41:01;;;;;;;0.20;0.20;;;15.20;69.10;;;;;;4993860;28;20046;-66
2021/05/13 09:43:31;;;;;;;0.10;0.10;;;15.50;68.30;;;;;;4994064;28;20118;-66
2021/05/13 09:46:00;;;;;;;0.10;0.10;;;15.80;67.40;;;;;;4985049;28;20050;-66
2021/05/13 09:48:35;;;;;;;0.10;0.10;;;16.20;63.00;;;;;;4984963;28;20046;-66
2021/05/13 09:51:20;;;;;;;1.60;1.50;;;16.80;63.50;;;;;;4980108;28;20061;-66
2021/05/13 09:54:08;;;;;;;1.00;1.00;;;17.10;60.90;;;;;;4989666;28;20054;-66
2021/05/13 09:56:38;;;;;;;0.30;0.30;;;17.00;61.40;;;;;;4989504;28;20050;-66
2021/05/13 09:59:29;;;;;;;0.10;0.10;;;17.20;61.50;;;;;;4990283;28;20050;-66
2021/05/13 10:01:56;;;;;;;0.10;0.10;;;17.30;61.20;;;;;;4989661;28;20050;-66
2021/05/13 10:04:23;;;;;;;0.17;0.17;;;17.40;60.60;;;;;;4989475;28;20077;-66
2021/05/13 10:06:50;;;;;;;0.00;0.00;;;17.50;59.90;;;;;;4989916;28;20098;-66
2021/05/13 10:09:18;;;;;;;0.10;0.10;;;17.50;58.80;;;;;;4989803;28;20054;-66
2021/05/13 10:11:49;;;;;;;0.38;0.38;;;17.30;58.20;;;;;;4989795;28;20089;-66
2021/05/13 10:14:16;;;;;;;0.10;0.10;;;17.00;58.90;;;;;;4989586;28;20050;-66
2021/05/13 10:16:44;;;;;;;0.10;0.10;;;16.70;58.30;;;;;;4989516;28;20050;-66
2021/05/13 10:20:00;;;;;;;0.10;0.10;;;16.40;58.80;;;;;;4989900;28;20057;-66
2021/05/13 10:22:26;;;;;;;0.10;0.10;;;16.20;60.10;;;;;;4980461;28;20245;-66
2021/05/13 10:25:22;;;;;;;0.10;0.10;;;16.30;60.70;;;;;;4989489;28;20057;-66
2021/05/13 10:27:50;;;;;;;0.13;0.13;;;16.40;60.00;;;;;;4980501;28;20053;-66
2021/05/13 10:30:20;;;;;;;0.15;0.15;;;16.50;60.10;;;;;;4989475;28;20049;-66
2021/05/13 10:33:19;;;;;;;0.10;0.10;;;16.50;59.50;;;;;;4989677;28;20058;-66
2021/05/13 10:36:05;;;;;;;0.10;0.10;;;16.40;58.20;;;;;;4989022;28;20129;-66
2021/05/13 10:38:39;;;;;;;0.00;0.00;;;16.40;59.30;;;;;;4989293;28;20050;-66
2021/05/13 10:41:33;;;;;;;0.05;0.05;;;16.50;59.60;;;;;;4989186;28;20058;-66
2021/05/13 10:44:23;;;;;;;0.20;0.20;;;16.60;59.90;;;;;;4988907;28;20434;-66
2021/05/13 10:46:54;;;;;;;0.03;0.03;;;16.70;58.50;;;;;;4982662;28;20050;-66
2021/05/13 10:49:25;;;;;;;0.00;0.00;;;16.60;56.70;;;;;;4989110;28;20050;-66
2021/05/13 10:51:54;;;;;;;0.10;0.10;;;16.50;56.00;;;;;;4988281;28;20494;-66
2021/05/13 10:54:29;;;;;;;0.03;0.03;;;16.60;56.50;;;;;;4989084;28;20057;-66
2021/05/13 10:57:19;;;;;;;0.10;0.10;;;16.70;56.30;;;;;;4988757;28;20133;-66
2021/05/13 11:00:07;;;;;;;0.10;0.10;;;16.80;55.00;;;;;;4988389;28;20054;-66
2021/05/13 11:02:39;;;;;;;0.00;0.00;;;16.90;55.30;;;;;;4988272;28;20059;-66
2021/05/13 11:05:38;;;;;;;0.03;0.03;;;16.90;54.40;;;;;;4988550;28;20132;-66
2021/05/13 11:08:07;;;;;;;0.00;0.00;;;17.10;54.10;;;;;;4974963;28;20082;-66
2021/05/13 11:10:49;;;;;;;0.10;0.10;;;17.10;53.90;;;;;;4986721;28;20096;-66
2021/05/13 11:13:16;;;;;;;0.10;0.10;;;17.10;54.20;;;;;;4982232;28;20179;-66
2021/05/13 11:15:47;;;;;;;0.00;0.00;;;17.20;54.40;;;;;;4973041;28;20503;-66
2021/05/13 11:18:15;;;;;;;0.10;0.10;;;17.30;54.20;;;;;;4972713;28;20149;-66
2021/05/13 11:20:44;;;;;;;0.10;0.10;;;17.30;54.00;;;;;;4975775;28;20053;-65
2021/05/13 11:23:20;;;;;;;0.10;0.10;;;17.40;53.60;;;;;;4982228;28;20078;-66
2021/05/13 11:25:50;;;;;;;0.00;0.00;;;17.50;54.00;;;;;;4983064;28;20137;-66
2021/05/13 11:28:22;;;;;;;0.10;0.10;;;17.50;53.90;;;;;;4987687;28;20062;-66
2021/05/13 11:30:50;;;;;;;0.20;0.20;;;17.60;53.90;;;;;;4985907;28;20050;-66
2021/05/13 11:33:17;;;;;;;0.10;0.10;;;17.60;53.60;;;;;;4983554;28;20104;-64
2021/05/13 11:35:44;;;;;;;0.10;0.10;;;17.70;54.20;;;;;;4984526;28;20133;-65
2021/05/13 11:38:23;;;;;;;0.10;0.10;;;17.80;54.20;;;;;;4987906;28;20050;-65
2021/05/13 11:40:53;;;;;;;0.10;0.10;;;17.90;54.20;;;;;;4988447;28;20050;-66
2021/05/13 11:43:27;;;;;;;0.10;0.10;;;17.90;53.80;;;;;;4987720;28;20054;-65
2021/05/13 11:45:56;;;;;;;0.10;0.10;;;18.00;53.70;;;;;;4988260;28;20061;-66
2021/05/13 11:48:36;;;;;;;0.00;0.00;;;17.90;53.50;;;;;;4993128;28;20054;-66
2021/05/13 11:51:10;;;;;;;0.00;0.00;;;17.90;54.20;;;;;;4987848;28;20514;-66
2021/05/13 11:53:47;;;;;;;0.00;0.00;;;17.90;54.50;;;;;;4987878;28;20133;-66
2021/05/13 11:56:16;;;;;;;0.10;0.10;;;17.90;53.10;;;;;;4988242;28;20054;-65
2021/05/13 11:58:56;;;;;;;0.00;0.00;;;17.90;53.20;;;;;;4988556;28;20054;-65
2021/05/13 12:01:37;;;;;;;0.10;0.10;;;17.80;54.00;;;;;;4988464;28;20058;-66
2021/05/13 12:04:16;;;;;;;0.20;0.20;;;17.70;54.60;;;;;;4986978;28;20295;-66
2021/05/13 12:07:01;;;;;;;0.10;0.10;;;17.70;53.50;;;;;;4987480;28;20054;-66
2021/05/13 12:09:30;;;;;;;0.10;0.10;;;17.70;53.50;;;;;;4975146;28;20050;-65
2021/05/13 12:11:56;;;;;;;0.10;0.10;;;17.70;54.30;;;;;;4975214;28;20058;-67
2021/05/13 12:14:28;;;;;;;0.10;0.10;;;17.60;53.70;;;;;;4983326;28;20050;-68
2021/05/13 12:17:09;;;;;;;0.08;0.08;;;17.60;53.20;;;;;;4990236;28;20058;-66
2021/05/13 12:19:39;;;;;;;0.10;0.10;;;17.50;53.10;;;;;;4973404;28;20077;-66
2021/05/13 12:22:11;;;;;;;0.10;0.10;;;17.40;52.40;;;;;;4978333;28;20082;-67
2021/05/13 12:24:41;;;;;;;0.10;0.10;;;17.30;52.80;;;;;;4979134;28;20200;-67
2021/05/13 12:27:17;;;;;;;0.10;0.10;;;17.40;53.80;;;;;;4980739;28;20090;-65
2021/05/13 12:29:51;;;;;;;0.03;0.03;;;17.30;53.50;;;;;;4982095;28;20065;-66
2021/05/13 12:32:31;;;;;;;0.00;0.00;;;17.20;54.70;;;;;;4987181;28;20108;-67
2021/05/13 12:34:57;;;;;;;0.10;0.10;;;17.30;53.00;;;;;;4988515;28;20046;-64
2021/05/13 12:37:24;;;;;;;0.00;0.00;;;17.30;52.90;;;;;;4987699;28;20524;-67
2021/05/13 12:39:51;;;;;;;0.05;0.05;;;17.30;53.10;;;;;;4986279;28;20050;-66
2021/05/13 12:42:26;;;;;;;0.10;0.10;;;17.20;54.70;;;;;;4987336;28;20046;-66
2021/05/13 12:45:40;;;;;;;0.10;0.10;;;17.20;56.10;;;;;;4987452;28;20050;-67
2021/05/13 12:48:06;;;;;;;0.00;0.00;;;17.00;56.70;;;;;;4948772;28;20523;-67
2021/05/13 12:50:33;;;;;;;0.38;0.15;;;17.00;57.30;;;;;;4949470;28;20059;-68
2021/05/13 12:53:15;;;;;;;0.00;0.00;;;16.90;57.80;;;;;;4948865;29;20443;-66
2021/05/13 12:55:43;;;;;;;0.00;0.00;;;16.90;58.50;;;;;;4949735;29;20047;-66
2021/05/13 12:58:11;;;;;;;0.10;0.10;;;16.80;58.80;;;;;;4949353;29;20078;-67
2021/05/13 13:00:38;;;;;;;0.10;0.10;;;16.80;58.70;;;;;;4949034;29;20113;-67
2021/05/13 13:03:17;;;;;;;0.00;0.00;;;16.70;59.30;;;;;;4948884;29;20062;-66
2021/05/13 13:05:44;;;;;;;0.10;0.10;;;16.80;59.80;;;;;;4948432;29;20577;-66
2021/05/13 13:08:11;;;;;;;0.08;0.08;;;16.80;59.30;;;;;;4947609;29;20479;-71